Time;durP1;ratioP1;P1;durP2;ratioP2;P2;SDS_P1;SDS_P2;PMS_P1;PMS_P2;Temp;Humidity;BMP_temperature;BMP_pressure;BME280_temperature;BME280_humidity;BME280_pressure;Samples;Min_cycle;Max_cycle;Signal;HPM_P1;HPM_P2
2022/05/31 00:02:22;;;;;;;3.40;3.10;;;;;;;12.81;74.35;98940.66;5111693;28;20212;-82
2022/05/31 00:04:48;;;;;;;3.40;3.10;;;;;;;12.69;75.01;98950.56;5112075;28;20483;-81
2022/05/31 00:07:17;;;;;;;5.80;3.20;;;;;;;12.80;74.83;98951.56;5115283;28;20226;-81
2022/05/31 00:09:45;;;;;;;3.70;3.30;;;;;;;12.93;73.79;98941.53;5109977;28;20192;-82
2022/05/31 00:12:12;;;;;;;5.38;3.40;;;;;;;12.90;73.81;98936.38;5110746;28;20283;-82
2022/05/31 00:14:40;;;;;;;3.70;2.80;;;;;;;12.91;73.90;98940.78;5107989;28;20193;-81
2022/05/31 00:17:07;;;;;;;4.28;3.33;;;;;;;13.01;73.07;98939.09;5099130;28;20196;-82
2022/05/31 00:19:34;;;;;;;4.28;3.00;;;;;;;12.60;75.65;98953.13;5102301;28;20539;-83
2022/05/31 00:22:07;;;;;;;3.60;3.15;;;;;;;12.62;75.28;98948.47;5108647;28;20197;-82
2022/05/31 00:24:35;;;;;;;3.35;3.05;;;;;;;12.37;77.44;98946.75;5097950;28;20193;-81
2022/05/31 00:27:02;;;;;;;7.22;5.07;;;;;;;12.56;75.95;98944.38;5094615;28;20211;-81
2022/05/31 00:29:29;;;;;;;4.20;3.80;;;;;;;12.44;76.84;98950.75;5101777;28;20597;-82
2022/05/31 00:31:56;;;;;;;4.80;2.95;;;;;;;12.65;75.47;98951.78;5109630;28;20278;-82
2022/05/31 00:34:22;;;;;;;5.57;3.33;;;;;;;12.66;74.79;98944.53;5109277;28;20197;-82
2022/05/31 00:36:51;;;;;;;5.72;3.38;;;;;;;12.84;73.92;98936.84;5107749;28;20199;-82
2022/05/31 00:39:17;;;;;;;3.92;3.22;;;;;;;12.62;75.33;98943.06;5114526;28;20549;-82
2022/05/31 00:41:57;;;;;;;7.85;4.85;;;;;;;12.66;74.99;98944.53;5110960;28;20223;-82
2022/05/31 00:44:27;;;;;;;7.43;3.25;;;;;;;12.84;73.91;98936.84;5114011;28;20204;-83
2022/05/31 00:46:57;;;;;;;3.55;3.25;;;;;;;12.69;73.98;98944.31;5109650;28;20551;-82
2022/05/31 00:49:29;;;;;;;23.35;4.15;;;;;;;12.80;73.51;98938.94;5097207;28;20203;-82
2022/05/31 00:52:00;;;;;;;5.80;3.20;;;;;;;12.72;73.82;98944.91;5107151;28;20557;-82
2022/05/31 00:54:30;;;;;;;3.90;3.20;;;;;;;12.63;74.18;98940.22;5094461;28;20193;-82
2022/05/31 00:56:59;;;;;;;5.20;3.15;;;;;;;12.27;76.58;98942.06;5093301;28;20614;-82
2022/05/31 00:59:28;;;;;;;6.65;2.97;;;;;;;12.41;76.23;98946.41;5097678;28;20191;-81
2022/05/31 01:01:57;;;;;;;5.32;3.40;;;;;;;12.49;75.71;98937.75;5093248;28;20221;-82
2022/05/31 01:04:31;;;;;;;3.75;3.38;;;;;;;12.12;77.90;98934.25;5096116;28;20230;-81
2022/05/31 01:06:59;;;;;;;4.53;3.03;;;;;;;12.47;75.96;98937.00;5110860;28;20198;-83
2022/05/31 01:09:26;;;;;;;3.60;3.20;;;;;;;12.47;76.06;98943.25;5104882;28;20260;-82
2022/05/31 01:11:52;;;;;;;4.00;3.17;;;;;;;12.42;75.94;98941.91;5092818;28;20283;-82
2022/05/31 01:14:20;;;;;;;4.20;3.00;;;;;;;12.34;76.13;98941.59;5112143;28;20221;-82
2022/05/31 01:17:00;;;;;;;4.80;3.42;;;;;;;12.54;75.14;98946.34;5110353;28;20206;-82
2022/05/31 01:22:12;;;;;;;4.40;3.38;;;;;;;12.52;74.84;98942.91;5098894;28;20272;-82
2022/05/31 01:24:48;;;;;;;3.67;3.38;;;;;;;12.49;74.73;98946.69;5097771;28;20716;-82
2022/05/31 01:27:28;;;;;;;4.82;3.15;;;;;;;12.48;74.81;98944.09;5112379;28;20551;-82
2022/05/31 01:29:55;;;;;;;4.30;3.30;;;;;;;12.59;73.89;98938.75;5113228;28;20274;-80
2022/05/31 01:32:22;;;;;;;3.65;3.08;;;;;;;12.64;73.69;98933.88;5107395;28;20228;-82
2022/05/31 01:34:54;;;;;;;4.38;3.28;;;;;;;12.48;74.55;98934.19;5098957;28;20196;-82
2022/05/31 01:37:28;;;;;;;3.00;2.70;;;;;;;12.40;74.85;98930.34;5097413;28;20276;-82
2022/05/31 01:40:00;;;;;;;3.20;2.90;;;;;;;12.27;75.68;98925.84;5093015;28;20196;-81
2022/05/31 01:42:33;;;;;;;3.60;2.70;;;;;;;12.25;76.17;98925.13;5107333;28;20211;-82
2022/05/31 01:45:09;;;;;;;3.25;2.95;;;;;;;12.20;76.33;98916.50;5105945;28;20196;-81
2022/05/31 01:47:37;;;;;;;3.95;3.25;;;;;;;12.23;76.09;98921.69;5107758;28;20206;-82
2022/05/31 01:50:09;;;;;;;5.45;2.95;;;;;;;12.41;75.03;98923.94;5112871;28;20227;-81
2022/05/31 01:52:37;;;;;;;4.13;3.00;;;;;;;12.34;75.40;98933.50;5111140;28;20225;-82
2022/05/31 01:55:05;;;;;;;3.40;3.10;;;;;;;12.23;75.79;98921.69;5095933;28;20196;-81
2022/05/31 01:57:34;;;;;;;4.10;3.08;;;;;;;12.18;76.04;98918.47;5091447;28;20211;-81
2022/05/31 02:00:03;;;;;;;4.68;2.90;;;;;;;11.93;77.86;98913.19;5092113;28;20210;-82
2022/05/31 02:02:31;;;;;;;3.63;2.95;;;;;;;11.89;78.26;98918.84;5103242;28;20196;-82
2022/05/31 02:04:57;;;;;;;4.97;3.33;;;;;;;11.79;79.02;98917.75;5099279;28;20336;-81
2022/05/31 02:07:26;;;;;;;4.50;3.45;;;;;;;11.77;78.84;98918.84;5107065;28;20195;-81
2022/05/31 02:09:55;;;;;;;3.92;3.00;;;;;;;11.58;80.52;98922.88;5101899;28;20223;-82
2022/05/31 02:12:23;;;;;;;4.25;2.90;;;;;;;11.69;80.29;98925.66;5098620;28;20210;-82
2022/05/31 02:14:50;;;;;;;3.55;3.25;;;;;;;11.84;78.94;98931.75;5107806;28;20197;-82
2022/05/31 02:17:17;;;;;;;5.43;3.05;;;;;;;11.64;79.83;98921.56;5108393;28;20227;-81
2022/05/31 02:19:45;;;;;;;3.78;2.95;;;;;;;11.57;80.58;98918.44;5111706;28;20206;-81
2022/05/31 02:22:14;;;;;;;4.30;3.33;;;;;;;11.44;81.27;98920.31;5107237;28;20224;-82
2022/05/31 02:24:41;;;;;;;4.72;3.00;;;;;;;11.44;81.32;98913.13;5100224;28;20211;-81
2022/05/31 02:27:10;;;;;;;3.47;3.13;;;;;;;11.36;82.21;98914.63;5104599;28;20654;-82
2022/05/31 02:29:39;;;;;;;3.67;3.20;;;;;;;11.32;82.70;98916.69;5092167;28;20184;-81
2022/05/31 02:32:09;;;;;;;3.25;2.85;;;;;;;11.25;83.29;98912.72;5101190;28;20197;-81
2022/05/31 02:34:38;;;;;;;10.48;3.28;;;;;;;11.47;81.67;98904.78;5095676;28;20214;-82
2022/05/31 02:37:05;;;;;;;3.30;3.00;;;;;;;11.33;82.20;98907.63;5092076;28;20202;-82
2022/05/31 02:39:32;;;;;;;3.22;2.70;;;;;;;11.31;82.35;98906.88;5109223;28;20195;-82
2022/05/31 02:41:59;;;;;;;3.95;3.28;;;;;;;11.19;83.67;98896.97;5105178;28;20203;-81
2022/05/31 02:44:27;;;;;;;4.15;3.20;;;;;;;11.20;83.55;98898.72;5115617;28;20262;-82
2022/05/31 02:46:54;;;;;;;3.78;3.40;;;;;;;11.11;84.40;98885.91;5113075;28;20209;-81
2022/05/31 02:49:21;;;;;;;3.83;3.03;;;;;;;11.10;84.84;98882.31;5100564;28;20654;-80
2022/05/31 02:51:48;;;;;;;5.30;3.50;;;;;;;11.14;84.66;98882.97;5109997;28;20241;-81
2022/05/31 02:54:18;;;;;;;4.93;3.30;;;;;;;11.22;83.82;98886.84;5113338;28;20192;-82
2022/05/31 02:56:46;;;;;;;4.45;3.00;;;;;;;11.15;84.13;98885.56;5107479;28;20661;-81
2022/05/31 02:59:13;;;;;;;3.95;3.08;;;;;;;11.09;85.15;98885.16;5099377;28;20199;-81
2022/05/31 03:01:42;;;;;;;4.13;3.22;;;;;;;10.97;85.96;98894.97;5101679;28;20191;-81
2022/05/31 03:04:11;;;;;;;4.40;3.28;;;;;;;11.10;84.98;98884.16;5104457;28;20285;-82
2022/05/31 03:06:37;;;;;;;3.47;2.70;;;;;;;10.95;85.73;98887.00;5097383;28;20196;-82
2022/05/31 03:09:04;;;;;;;5.10;3.03;;;;;;;10.89;86.60;98887.41;5095682;28;20181;-81
2022/05/31 03:11:35;;;;;;;4.45;3.72;;;;;;;10.83;86.87;98879.75;5097005;28;20202;-82
2022/05/31 03:14:08;;;;;;;5.20;2.95;;;;;;;10.85;87.23;98888.59;5097349;28;20200;-81
2022/05/31 03:16:39;;;;;;;3.75;3.30;;;;;;;10.82;87.38;98884.28;5112937;28;20583;-81
2022/05/31 03:19:12;;;;;;;4.22;3.22;;;;;;;10.87;87.49;98886.66;5104511;28;20196;-82
2022/05/31 03:21:47;;;;;;;4.72;3.70;;;;;;;10.76;87.92;98886.56;5097420;28;20284;-81
2022/05/31 03:24:18;;;;;;;5.22;3.60;;;;;;;10.83;88.01;98882.44;5098403;28;20218;-82
2022/05/31 03:26:49;;;;;;;6.60;3.03;;;;;;;10.78;87.35;98882.78;5094878;28;20188;-82
2022/05/31 03:29:16;;;;;;;3.80;3.13;;;;;;;10.72;88.27;98882.34;5099274;28;20198;-82
2022/05/31 03:31:42;;;;;;;7.63;3.70;;;;;;;10.70;87.99;98881.63;5099933;28;20191;-81
2022/05/31 03:34:10;;;;;;;3.00;2.70;;;;;;;10.72;87.86;98876.97;5107095;28;20191;-82
2022/05/31 03:36:38;;;;;;;5.38;3.50;;;;;;;10.74;87.84;98881.31;5114860;28;20191;-81
2022/05/31 03:39:04;;;;;;;6.40;2.95;;;;;;;10.77;87.32;98882.91;5095302;28;20646;-82
2022/05/31 03:41:34;;;;;;;3.58;3.20;;;;;;;10.77;87.57;98874.84;5094898;28;20192;-82
2022/05/31 03:44:01;;;;;;;4.18;3.30;;;;;;;10.77;87.17;98875.69;5099269;28;20923;-81
2022/05/31 03:46:28;;;;;;;4.78;3.13;;;;;;;10.79;87.39;98871.06;5094387;28;20208;-81
2022/05/31 03:48:54;;;;;;;6.22;3.30;;;;;;;10.69;88.36;98883.44;5107465;28;20195;-81
2022/05/31 03:51:22;;;;;;;3.45;3.15;;;;;;;10.68;88.85;98883.56;5109692;28;20313;-82
2022/05/31 03:53:49;;;;;;;3.95;3.22;;;;;;;10.85;87.70;98883.22;5100305;28;20203;-82
2022/05/31 03:56:16;;;;;;;5.82;4.35;;;;;;;10.91;87.28;98877.41;5105520;28;20227;-82
2022/05/31 03:58:42;;;;;;;6.13;3.40;;;;;;;10.88;87.08;98879.44;5114363;28;20700;-82
2022/05/31 04:01:09;;;;;;;4.32;2.75;;;;;;;10.87;87.64;98880.41;5113642;28;20199;-83
2022/05/31 04:03:36;;;;;;;4.53;3.40;;;;;;;10.97;86.97;98876.97;5103007;28;20652;-82
2022/05/31 04:06:02;;;;;;;6.28;3.70;;;;;;;11.16;85.36;98879.19;5095307;28;20206;-82
2022/05/31 04:08:30;;;;;;;3.70;2.67;;;;;;;11.25;84.64;98874.97;5114629;28;20189;-82
2022/05/31 04:10:57;;;;;;;4.88;3.88;;;;;;;11.19;84.48;98870.03;5110358;28;20870;-82
2022/05/31 04:13:25;;;;;;;4.05;3.55;;;;;;;11.13;85.75;98875.88;5098349;28;20208;-82
2022/05/31 04:16:03;;;;;;;5.50;3.92;;;;;;;11.17;86.11;98877.34;5094813;28;20290;-82
2022/05/31 04:18:29;;;;;;;4.20;3.53;;;;;;;11.27;86.08;98881.97;5106424;28;20228;-82
2022/05/31 04:21:00;;;;;;;4.20;3.35;;;;;;;11.33;85.05;98885.19;5111134;28;20286;-82
2022/05/31 04:26:13;;;;;;;4.55;3.55;;;;;;;11.36;84.64;98885.84;5094022;28;20228;-81
2022/05/31 04:28:39;;;;;;;5.00;4.50;;;;;;;11.49;84.42;98888.53;5097755;28;20218;-82
2022/05/31 04:31:07;;;;;;;4.38;3.50;;;;;;;11.64;82.63;98883.81;5109407;28;20210;-82
2022/05/31 04:33:34;;;;;;;4.70;3.50;;;;;;;11.63;82.28;98890.19;5108383;28;20202;-81
2022/05/31 04:36:01;;;;;;;4.40;4.00;;;;;;;11.45;83.79;98885.19;5098574;28;20204;-81
2022/05/31 04:38:28;;;;;;;5.95;3.80;;;;;;;11.51;84.50;98883.00;5103414;28;20677;-82
2022/05/31 04:40:55;;;;;;;6.05;4.45;;;;;;;11.45;85.58;98881.63;5103849;28;20660;-82
2022/05/31 04:43:23;;;;;;;5.20;3.95;;;;;;;11.46;85.32;98889.59;5112101;28;21896;-82
2022/05/31 04:45:50;;;;;;;5.95;4.85;;;;;;;11.48;85.99;98895.72;5109473;28;20212;-81
2022/05/31 04:48:16;;;;;;;6.97;4.15;;;;;;;11.60;84.85;98890.41;5098774;28;20698;-82
2022/05/31 04:50:43;;;;;;;6.30;4.20;;;;;;;11.60;84.06;98888.59;5113862;28;20235;-82
2022/05/31 04:53:10;;;;;;;4.43;4.03;;;;;;;11.37;85.47;98889.41;5099570;28;20206;-81
2022/05/31 04:55:37;;;;;;;5.13;4.20;;;;;;;11.32;87.05;98886.19;5093548;28;20257;-82
2022/05/31 04:58:03;;;;;;;6.13;4.28;;;;;;;11.60;85.28;98885.91;5097189;28;20559;-82
2022/05/31 05:00:31;;;;;;;6.55;4.70;;;;;;;11.69;83.89;98889.75;5094063;28;20669;-82
2022/05/31 05:02:58;;;;;;;6.47;4.57;;;;;;;11.98;81.61;98897.53;5097075;28;20199;-81
2022/05/31 05:05:25;;;;;;;4.25;3.85;;;;;;;12.08;80.72;98891.31;5102620;28;20219;-83
2022/05/31 05:07:51;;;;;;;6.50;4.70;;;;;;;12.07;81.04;98899.53;5110738;28;20203;-84
2022/05/31 05:10:19;;;;;;;7.43;4.75;;;;;;;11.95;81.80;98901.31;5107297;28;20192;-83
2022/05/31 05:12:45;;;;;;;5.78;4.20;;;;;;;12.04;80.83;98889.81;5113686;28;20183;-83
2022/05/31 05:15:12;;;;;;;7.50;5.97;;;;;;;12.09;80.96;98893.03;5102174;28;20199;-84
2022/05/31 05:17:40;;;;;;;5.45;3.97;;;;;;;12.16;80.06;98897.97;5093425;28;20541;-80
2022/05/31 05:20:08;;;;;;;4.78;3.50;;;;;;;12.29;79.21;98905.00;5095976;28;20199;-83
2022/05/31 05:22:35;;;;;;;4.40;3.90;;;;;;;12.40;78.66;98909.59;5113283;28;20237;-84
2022/05/31 05:25:02;;;;;;;4.60;3.53;;;;;;;12.60;77.36;98891.88;5114165;28;20207;-82
2022/05/31 05:27:28;;;;;;;7.90;4.70;;;;;;;12.65;77.40;98902.31;5106002;28;20202;-80
2022/05/31 05:32:40;;;;;;;6.72;3.50;;;;;;;12.31;79.40;98913.88;5113278;28;20186;-82
2022/05/31 05:35:07;;;;;;;4.53;4.07;;;;;;;12.35;79.02;98910.94;5113239;28;20527;-81
2022/05/31 05:37:34;;;;;;;5.50;3.90;;;;;;;12.40;78.96;98911.44;5112630;28;20270;-81
2022/05/31 05:40:01;;;;;;;6.05;3.80;;;;;;;12.47;78.61;98905.44;5113310;28;20278;-81
2022/05/31 05:42:28;;;;;;;4.00;3.60;;;;;;;12.44;78.35;98902.16;5112736;28;20566;-84
2022/05/31 05:44:56;;;;;;;5.00;4.07;;;;;;;12.52;77.45;98897.84;5103724;28;20228;-83
2022/05/31 05:47:22;;;;;;;4.85;4.35;;;;;;;12.63;76.82;98894.31;5131896;27;20621;-83
2022/05/31 05:49:50;;;;;;;3.60;3.30;;;;;;;12.75;75.85;98887.09;5132919;27;20232;-83
2022/05/31 05:52:17;;;;;;;7.85;3.17;;;;;;;12.67;75.81;98882.31;5133463;27;20188;-83
2022/05/31 05:54:45;;;;;;;4.40;3.47;;;;;;;12.87;75.11;98888.84;5133380;27;20266;-83
2022/05/31 05:57:12;;;;;;;6.97;4.35;;;;;;;13.10;74.03;98881.59;5133249;27;20725;-83
2022/05/31 05:59:38;;;;;;;4.95;4.15;;;;;;;13.21;72.99;98888.88;5133607;27;20195;-82
2022/05/31 06:02:12;;;;;;;4.18;3.10;;;;;;;12.88;74.58;98885.16;5113946;27;20206;-84
2022/05/31 06:04:44;;;;;;;5.30;3.60;;;;;;;13.02;74.30;98896.72;5092375;28;20205;-84
2022/05/31 06:07:16;;;;;;;5.13;3.20;;;;;;;13.30;72.69;98892.72;5092410;28;20612;-83
2022/05/31 06:09:54;;;;;;;4.85;3.10;;;;;;;13.66;70.91;98890.72;5091974;28;20189;-83
2022/05/31 06:12:26;;;;;;;4.60;4.15;;;;;;;14.10;69.20;98900.53;5092529;28;20195;-83
2022/05/31 06:14:56;;;;;;;6.05;3.40;;;;;;;14.18;67.99;98906.16;5092566;28;20621;-83
2022/05/31 06:17:25;;;;;;;7.13;4.00;;;;;;;14.41;66.99;98897.94;5092381;28;20554;-84
2022/05/31 06:19:52;;;;;;;4.07;3.15;;;;;;;14.41;66.32;98902.50;5093020;28;20206;-83
2022/05/31 06:22:21;;;;;;;5.90;4.32;;;;;;;14.47;66.50;98902.84;5098198;28;20201;-83
2022/05/31 06:24:49;;;;;;;7.82;3.50;;;;;;;14.75;64.86;98895.94;5112291;28;20509;-83
2022/05/31 06:27:15;;;;;;;8.07;4.20;;;;;;;15.06;62.83;98893.28;5112701;28;20185;-82
2022/05/31 06:29:42;;;;;;;3.85;2.97;;;;;;;15.40;61.16;98895.69;5112414;28;20203;-82
2022/05/31 06:32:09;;;;;;;6.82;3.45;;;;;;;15.49;60.25;98889.44;5112041;28;20694;-83
2022/05/31 06:34:37;;;;;;;7.35;3.60;;;;;;;15.89;59.20;98887.72;5111821;28;20598;-83
2022/05/31 06:37:06;;;;;;;3.05;2.75;;;;;;;16.10;58.04;98883.03;5110836;28;20203;-83
2022/05/31 06:39:36;;;;;;;6.07;4.30;;;;;;;16.35;57.45;98883.44;5112058;28;20538;-82
2022/05/31 06:42:04;;;;;;;5.50;2.95;;;;;;;16.00;57.61;98904.72;5095441;28;20208;-82
2022/05/31 06:44:32;;;;;;;4.88;3.30;;;;;;;15.47;60.76;98907.72;5091534;28;20220;-83
2022/05/31 06:46:59;;;;;;;10.60;7.20;;;;;;;15.66;61.03;98898.78;5094457;28;20188;-83
2022/05/31 06:49:26;;;;;;;6.60;5.65;;;;;;;15.84;60.35;98899.00;5093558;28;20346;-84
2022/05/31 06:57:22;;;;;;;3.70;3.08;;;;;;;15.75;60.49;98887.13;5064791;28;20279;-83
2022/05/31 06:59:48;;;;;;;3.35;2.88;;;;;;;16.01;60.49;98887.47;5109671;28;20289;-83
2022/05/31 07:02:15;;;;;;;3.70;3.17;;;;;;;16.31;59.61;98880.19;5100122;28;20187;-82
2022/05/31 07:04:42;;;;;;;3.60;2.50;;;;;;;15.97;61.14;98883.31;5095690;28;20218;-84
2022/05/31 07:07:08;;;;;;;4.30;2.95;;;;;;;16.14;60.90;98867.31;5091706;28;20283;-82
2022/05/31 07:09:35;;;;;;;5.10;3.78;;;;;;;16.33;60.73;98878.19;5091293;28;20184;-84
2022/05/31 07:12:03;;;;;;;4.18;3.78;;;;;;;16.64;58.65;98875.28;5091438;28;20626;-84
2022/05/31 07:14:30;;;;;;;9.35;3.53;;;;;;;16.68;56.50;98874.84;5091387;28;20512;-84
2022/05/31 07:16:56;;;;;;;4.03;3.22;;;;;;;17.03;55.56;98886.97;5091508;28;20607;-83
2022/05/31 07:19:23;;;;;;;3.60;3.00;;;;;;;17.53;52.74;98872.16;5091436;28;20610;-83
2022/05/31 07:21:50;;;;;;;4.35;3.95;;;;;;;17.67;52.43;98871.66;5091052;28;20287;-84
2022/05/31 07:24:17;;;;;;;4.43;2.97;;;;;;;17.63;53.15;98864.78;5091247;28;20205;-83
2022/05/31 07:26:44;;;;;;;4.15;2.85;;;;;;;17.74;53.76;98876.50;5091224;28;20211;-84
2022/05/31 07:29:12;;;;;;;5.22;3.90;;;;;;;17.80;53.48;98865.84;5092096;28;20670;-84
2022/05/31 07:31:41;;;;;;;3.53;2.63;;;;;;;17.79;53.75;98868.72;5095051;28;20205;-83
2022/05/31 07:34:10;;;;;;;3.60;3.08;;;;;;;17.64;54.03;98861.06;5094814;28;20187;-84
2022/05/31 07:36:37;;;;;;;3.35;3.05;;;;;;;17.92;52.71;98864.63;5094566;28;20194;-83
2022/05/31 07:39:04;;;;;;;3.40;3.10;;;;;;;18.34;50.22;98869.50;5094813;28;20198;-83
2022/05/31 07:41:32;;;;;;;5.00;2.92;;;;;;;18.41;49.32;98867.00;5094666;28;20177;-83
2022/05/31 07:43:59;;;;;;;3.05;2.30;;;;;;;18.64;49.44;98861.91;5095965;28;20189;-83
2022/05/31 07:46:29;;;;;;;3.47;3.10;;;;;;;18.82;49.06;98859.16;5093882;28;20226;-83
2022/05/31 07:48:55;;;;;;;3.90;2.30;;;;;;;18.51;49.89;98867.75;5094889;28;20204;-83
2022/05/31 07:51:22;;;;;;;6.85;4.28;;;;;;;18.95;49.49;98862.31;5094448;28;20241;-84
2022/05/31 07:53:49;;;;;;;4.57;2.70;;;;;;;19.25;47.96;98859.25;5094875;28;20538;-84
2022/05/31 07:56:15;;;;;;;3.38;2.60;;;;;;;19.57;45.95;98869.47;5094530;28;20182;-84
2022/05/31 07:58:43;;;;;;;2.92;2.60;;;;;;;19.40;46.21;98862.22;5094956;28;20230;-83
2022/05/31 08:01:13;;;;;;;3.60;2.10;;;;;;;19.59;46.03;98857.34;5094126;28;20240;-83
2022/05/31 08:03:41;;;;;;;4.60;2.50;;;;;;;19.68;46.24;98869.16;5094695;28;20202;-83
2022/05/31 08:06:10;;;;;;;3.97;2.80;;;;;;;19.89;45.46;98867.91;5094255;28;20207;-83
2022/05/31 08:08:38;;;;;;;4.07;2.83;;;;;;;20.00;45.62;98865.69;5094419;28;20285;-85
2022/05/31 08:11:05;;;;;;;3.30;2.75;;;;;;;19.86;46.08;98868.25;5094837;28;20184;-84
2022/05/31 08:13:32;;;;;;;4.43;3.00;;;;;;;19.84;45.94;98870.28;5095075;28;20288;-83
2022/05/31 08:15:59;;;;;;;3.30;2.70;;;;;;;19.81;45.84;98866.00;5095062;28;20637;-84
2022/05/31 08:18:26;;;;;;;6.95;2.45;;;;;;;19.52;46.68;98871.84;5094146;28;20186;-84
2022/05/31 08:21:00;;;;;;;3.88;3.20;;;;;;;19.78;45.49;98867.16;5094006;28;20203;-84
2022/05/31 08:23:26;;;;;;;2.65;2.45;;;;;;;19.97;44.88;98874.25;5094437;28;20191;-83
2022/05/31 08:25:54;;;;;;;4.95;2.40;;;;;;;19.82;45.14;98880.50;5093903;28;20211;-84
2022/05/31 08:28:20;;;;;;;3.88;2.70;;;;;;;20.07;45.20;98876.81;5093911;28;20301;-82
2022/05/31 08:30:47;;;;;;;5.65;3.20;;;;;;;20.27;44.66;98869.16;5094068;28;20183;-84
2022/05/31 08:33:14;;;;;;;4.82;2.47;;;;;;;20.49;44.49;98873.13;5094008;28;20191;-83
2022/05/31 08:35:41;;;;;;;4.68;3.70;;;;;;;20.61;44.07;98874.50;5094130;28;20203;-84
2022/05/31 08:38:09;;;;;;;4.28;3.05;;;;;;;20.87;43.39;98864.41;5094164;28;20515;-84
2022/05/31 08:40:47;;;;;;;7.70;3.20;;;;;;;21.04;42.75;98868.81;5092943;28;20180;-83
2022/05/31 08:43:19;;;;;;;6.40;2.97;;;;;;;21.26;42.58;98874.63;5094088;28;20782;-84
2022/05/31 08:45:53;;;;;;;9.60;6.73;;;;;;;21.11;42.73;98877.19;5093875;28;20469;-84
2022/05/31 08:48:29;;;;;;;4.30;2.93;;;;;;;20.48;43.39;98876.88;5093862;28;20503;-84
2022/05/31 08:56:56;;;;;;;4.10;2.90;;;;;;;20.32;44.35;98876.84;5094226;28;20587;-84
2022/05/31 08:56:56;;;;;;;3.60;3.03;;;;;;;20.07;45.02;98876.81;5093411;28;20413;-83
2022/05/31 08:59:31;;;;;;;6.10;4.20;;;;;;;20.38;44.89;98873.44;5093660;28;20938;-84
2022/05/31 09:02:00;;;;;;;4.10;3.07;;;;;;;19.98;45.33;98875.09;5093257;28;20422;-84
2022/05/31 09:04:35;;;;;;;7.80;2.70;;;;;;;19.83;46.09;98868.56;5093953;28;20442;-83
2022/05/31 09:07:07;;;;;;;3.27;2.97;;;;;;;19.93;45.98;98866.53;5093306;28;20473;-83
2022/05/31 09:09:39;;;;;;;5.77;2.90;;;;;;;19.63;46.64;98865.19;5093260;28;20441;-84
2022/05/31 09:12:15;;;;;;;4.25;3.00;;;;;;;19.91;45.97;98871.31;5093361;28;20818;-84
2022/05/31 09:14:51;;;;;;;6.10;3.10;;;;;;;20.05;45.67;98865.19;5093711;28;20194;-84
2022/05/31 09:17:27;;;;;;;5.27;3.20;;;;;;;20.41;45.03;98867.63;5092878;28;20426;-83
2022/05/31 09:20:01;;;;;;;5.83;3.00;;;;;;;20.35;45.50;98871.03;5092797;28;20422;-85
2022/05/31 09:22:28;;;;;;;4.10;2.70;;;;;;;20.15;45.97;98862.31;5093275;28;20855;-84
2022/05/31 09:24:56;;;;;;;5.10;2.63;;;;;;;20.31;45.75;98858.75;5092650;28;20887;-85
2022/05/31 09:27:31;;;;;;;5.00;4.03;;;;;;;20.09;46.79;98876.66;5093099;28;20513;-83
2022/05/31 09:30:04;;;;;;;3.28;2.83;;;;;;;20.33;46.29;98873.97;5092468;28;20188;-84
2022/05/31 09:32:47;;;;;;;4.27;3.07;;;;;;;20.49;45.91;98870.38;5092721;28;20634;-84
2022/05/31 09:35:27;;;;;;;4.80;3.72;;;;;;;20.48;46.57;98863.19;5093193;28;20438;-85
2022/05/31 09:38:07;;;;;;;6.20;2.70;;;;;;;21.08;44.59;98861.97;5092811;28;20550;-83
2022/05/31 09:40:43;;;;;;;3.57;2.70;;;;;;;20.97;44.57;98859.59;5092631;28;20908;-85
2022/05/31 09:43:17;;;;;;;3.70;2.90;;;;;;;20.53;45.91;98866.28;5093087;28;20472;-84
2022/05/31 09:45:54;;;;;;;6.03;2.77;;;;;;;20.66;45.80;98862.22;5092376;28;20468;-84
2022/05/31 09:48:21;;;;;;;4.80;2.77;;;;;;;20.99;44.55;98861.16;5092273;28;20460;-85
2022/05/31 09:50:48;;;;;;;3.40;2.50;;;;;;;20.39;45.23;98867.78;5092768;28;20985;-85
2022/05/31 09:59:13;;;;;;;4.67;2.80;;;;;;;21.59;42.50;98850.72;5112254;28;20435;-85
2022/05/31 10:01:44;;;;;;;5.33;3.67;;;;;;;22.02;40.53;98851.16;5113095;28;20528;-83
2022/05/31 10:04:13;;;;;;;4.20;2.37;;;;;;;21.92;40.56;98848.66;5112702;28;20438;-84
2022/05/31 10:06:56;;;;;;;2.50;2.20;;;;;;;21.80;40.88;98850.13;5112169;28;20837;-84
2022/05/31 10:09:29;;;;;;;2.63;2.40;;;;;;;21.75;39.73;98847.88;5110987;28;20707;-83
2022/05/31 10:12:13;;;;;;;5.00;3.17;;;;;;;21.63;40.67;98854.81;5112569;28;20890;-84
2022/05/31 10:14:43;;;;;;;5.00;2.80;;;;;;;21.74;40.53;98846.19;5113023;28;20441;-85
2022/05/31 10:17:32;;;;;;;4.33;2.90;;;;;;;21.88;34.84;98847.31;5112498;28;20884;-84
2022/05/31 10:20:13;;;;;;;5.27;2.60;;;;;;;22.50;33.24;98846.41;5112457;28;20425;-84
2022/05/31 10:22:40;;;;;;;2.80;2.50;;;;;;;22.72;33.99;98838.31;5112885;28;20508;-85
2022/05/31 10:25:22;;;;;;;4.40;2.80;;;;;;;23.18;36.85;98854.69;5112280;28;20441;-84
2022/05/31 10:27:57;;;;;;;2.97;2.67;;;;;;;22.59;36.64;98848.06;5112206;28;20425;-85
2022/05/31 10:30:25;;;;;;;2.97;2.67;;;;;;;22.20;36.38;98845.41;5112897;28;20555;-84
2022/05/31 10:32:55;;;;;;;5.00;2.43;;;;;;;21.42;35.94;98837.09;5112348;28;20441;-84
2022/05/31 10:35:27;;;;;;;3.50;2.60;;;;;;;21.74;36.00;98843.44;5112233;28;20499;-84
2022/05/31 10:38:00;;;;;;;2.90;2.50;;;;;;;21.60;36.25;98842.31;5112046;28;20496;-85
2022/05/31 10:40:37;;;;;;;2.37;2.17;;;;;;;21.26;37.97;98842.59;5112443;28;20433;-83
2022/05/31 10:43:18;;;;;;;3.03;2.10;;;;;;;22.35;35.69;98843.59;5112607;28;20824;-84
2022/05/31 10:45:45;;;;;;;4.10;2.30;;;;;;;22.12;35.53;98843.56;5112033;28;20472;-84
2022/05/31 10:48:12;;;;;;;3.37;1.90;;;;;;;22.33;34.97;98842.09;5112583;28;20441;-84
2022/05/31 10:50:56;;;;;;;3.53;2.00;;;;;;;23.08;33.58;98842.09;5111735;28;20526;-85
2022/05/31 10:53:35;;;;;;;2.97;2.47;;;;;;;23.03;33.00;98839.06;5112262;28;20753;-83
2022/05/31 10:56:11;;;;;;;2.70;2.23;;;;;;;23.61;32.40;98847.50;5111993;28;20426;-84
2022/05/31 10:58:48;;;;;;;3.70;2.67;;;;;;;23.10;31.84;98851.00;5111812;28;20591;-83
2022/05/31 11:01:29;;;;;;;3.97;2.03;;;;;;;22.08;32.53;98845.81;5111565;28;20435;-83
2022/05/31 11:04:05;;;;;;;2.77;1.90;;;;;;;22.65;31.47;98844.56;5092104;28;20505;-83
2022/05/31 11:06:42;;;;;;;3.40;1.97;;;;;;;22.33;32.48;98847.56;5095822;28;20465;-85
2022/05/31 11:12:23;;;;;;;3.83;2.00;;;;;;;22.96;29.42;98851.81;5095513;28;20539;-83
2022/05/31 11:15:00;;;;;;;3.17;2.17;;;;;;;22.81;28.77;98856.41;5095663;28;20888;-81
2022/05/31 11:17:40;;;;;;;1.90;1.70;;;;;;;22.78;28.90;98854.06;5095087;28;20440;-82
2022/05/31 11:20:13;;;;;;;2.43;1.77;;;;;;;22.72;29.63;98852.03;5115164;28;20442;-82
2022/05/31 11:22:52;;;;;;;1.90;1.73;;;;;;;22.41;30.67;98859.34;5115465;28;20425;-81
2022/05/31 11:25:38;;;;;;;2.70;1.67;;;;;;;22.72;30.66;98855.63;5115693;28;20958;-83
2022/05/31 11:28:21;;;;;;;2.33;2.13;;;;;;;22.45;33.40;98865.28;5116177;28;20428;-83
2022/05/31 11:31:01;;;;;;;3.97;2.87;;;;;;;22.58;33.66;98860.03;5115497;28;20433;-83
2022/05/31 11:33:44;;;;;;;3.20;2.57;;;;;;;22.12;34.48;98860.03;5115420;28;20468;-83
2022/05/31 11:36:20;;;;;;;2.43;2.23;;;;;;;22.32;34.04;98860.44;5115525;28;20455;-84
2022/05/31 11:38:58;;;;;;;5.00;2.17;;;;;;;22.19;34.38;98858.25;5115631;28;20416;-85
2022/05/31 11:41:37;;;;;;;6.17;3.37;;;;;;;22.64;34.21;98866.69;5115574;28;20913;-84
2022/05/31 11:44:32;;;;;;;13.10;7.03;;;;;;;22.82;35.43;98847.16;5115470;28;20421;-83
2022/05/31 11:47:07;;;;;;;6.17;4.30;;;;;;;21.86;35.42;98857.59;5114852;28;20557;-84
2022/05/31 11:49:44;;;;;;;5.20;3.30;;;;;;;21.62;35.98;98845.75;5114993;28;20447;-84
2022/05/31 11:52:24;;;;;;;6.10;3.20;;;;;;;22.32;35.35;98854.97;5114957;28;20443;-83
2022/05/31 11:55:28;;;;;;;6.80;3.43;;;;;;;22.85;34.68;98863.25;5113906;28;20527;-83
2022/05/31 11:58:20;;;;;;;4.97;3.10;;;;;;;23.31;34.02;98846.66;5115014;28;20530;-85
2022/05/31 12:00:59;;;;;;;9.03;3.27;;;;;;;23.06;34.24;98857.91;5114943;28;20425;-83
2022/05/31 12:03:35;;;;;;;3.60;2.50;;;;;;;22.59;34.61;98855.41;5114695;28;20444;-83
2022/05/31 12:06:10;;;;;;;2.53;2.30;;;;;;;22.43;34.79;98860.00;5100579;28;20444;-83
2022/05/31 12:08:44;;;;;;;5.40;2.00;;;;;;;22.98;33.72;98849.75;5114170;28;20994;-83
2022/05/31 12:11:14;;;;;;;6.47;3.00;;;;;;;23.55;32.63;98852.91;5107661;28;20429;-84
2022/05/31 12:13:45;;;;;;;3.90;2.20;;;;;;;22.01;34.17;98853.06;5133406;27;20779;-83
2022/05/31 12:16:13;;;;;;;4.10;3.03;;;;;;;22.35;34.25;98849.09;5128507;27;20433;-83